Time;durP1;ratioP1;P1;durP2;ratioP2;P2;SDS_P1;SDS_P2;PMS_P1;PMS_P2;Temp;Humidity;BMP_temperature;BMP_pressure;BME280_temperature;BME280_humidity;BME280_pressure;Samples;Min_cycle;Max_cycle;Signal;HPM_P1;HPM_P2
2022/03/22 00:00:55;;;;;;;61.05;27.08;;;0.70;58.00;;;;;;5130359;27;20432;-77
2022/03/22 00:03:23;;;;;;;53.30;26.40;;;0.70;58.20;;;;;;5114627;28;20016;-77
2022/03/22 00:05:49;;;;;;;53.40;24.40;;;0.70;58.50;;;;;;5096372;28;20028;-76
2022/03/22 00:08:14;;;;;;;51.17;24.00;;;0.70;58.80;;;;;;5114460;28;20474;-77
2022/03/22 00:10:40;;;;;;;49.88;24.70;;;0.60;58.80;;;;;;5130205;27;20062;-77
2022/03/22 00:13:06;;;;;;;42.90;20.88;;;0.60;58.90;;;;;;5114425;28;20489;-77
2022/03/22 00:15:33;;;;;;;50.45;21.63;;;0.60;58.90;;;;;;5114510;28;20020;-77
2022/03/22 00:17:59;;;;;;;39.88;18.73;;;0.60;58.80;;;;;;5095969;28;20032;-77
2022/03/22 00:20:25;;;;;;;37.30;21.45;;;0.60;58.80;;;;;;5129819;27;20056;-77
2022/03/22 00:22:51;;;;;;;43.67;21.45;;;0.70;58.60;;;;;;5114193;28;20384;-77
2022/03/22 00:25:17;;;;;;;47.92;22.00;;;0.70;58.10;;;;;;5114180;28;20024;-77
2022/03/22 00:27:56;;;;;;;46.33;20.85;;;0.70;58.10;;;;;;5114221;28;20027;-76
2022/03/22 00:30:26;;;;;;;41.85;20.25;;;0.70;57.50;;;;;;5095818;28;20485;-76
2022/03/22 00:32:54;;;;;;;41.47;20.92;;;0.70;57.60;;;;;;5095594;28;20051;-77
2022/03/22 00:35:34;;;;;;;34.72;20.02;;;0.70;57.70;;;;;;5112728;28;20110;-78
2022/03/22 00:38:00;;;;;;;39.22;19.52;;;0.70;58.10;;;;;;5095658;28;20020;-78
2022/03/22 00:40:27;;;;;;;48.45;24.05;;;0.70;58.50;;;;;;5113864;28;20020;-78
2022/03/22 00:42:53;;;;;;;45.92;25.75;;;0.60;58.90;;;;;;5095221;28;20061;-76
2022/03/22 00:45:22;;;;;;;56.22;26.30;;;0.40;59.80;;;;;;5129685;27;20099;-78
2022/03/22 00:47:50;;;;;;;45.25;23.40;;;0.30;60.30;;;;;;5095537;28;20057;-78
2022/03/22 00:50:17;;;;;;;44.70;19.83;;;0.20;60.70;;;;;;5095534;28;20020;-77
2022/03/22 00:52:43;;;;;;;36.78;20.80;;;0.20;60.80;;;;;;5095256;28;20039;-77
2022/03/22 00:55:12;;;;;;;39.28;20.25;;;0.10;61.30;;;;;;5113731;28;20545;-78
2022/03/22 00:57:39;;;;;;;40.55;20.88;;;0.10;61.40;;;;;;5113777;28;20015;-78
2022/03/22 01:00:07;;;;;;;37.50;18.75;;;0.00;61.40;;;;;;5094356;28;20024;-77
2022/03/22 01:02:35;;;;;;;39.08;20.15;;;0.00;61.40;;;;;;5095071;28;20031;-78
2022/03/22 01:05:07;;;;;;;38.58;22.38;;;-0.10;62.10;;;;;;5113705;28;20028;-77
2022/03/22 01:07:34;;;;;;;46.75;24.20;;;-0.10;61.40;;;;;;5113573;28;20481;-77
2022/03/22 01:10:08;;;;;;;51.03;24.88;;;-0.10;62.00;;;;;;5113390;28;20053;-78
2022/03/22 01:12:39;;;;;;;41.05;20.73;;;0.00;61.90;;;;;;5113402;28;20370;-77
2022/03/22 01:15:10;;;;;;;44.00;20.60;;;0.00;61.80;;;;;;5113444;28;20019;-78
2022/03/22 01:17:36;;;;;;;41.80;19.65;;;0.00;61.00;;;;;;5095298;28;20092;-78
2022/03/22 01:20:06;;;;;;;36.15;19.77;;;0.00;60.70;;;;;;5095216;28;20019;-77
2022/03/22 01:22:32;;;;;;;33.67;18.58;;;0.00;60.70;;;;;;5113070;28;20036;-78
2022/03/22 01:24:59;;;;;;;31.85;17.40;;;0.00;60.60;;;;;;5095059;28;20028;-77
2022/03/22 01:27:26;;;;;;;33.70;18.52;;;0.10;61.10;;;;;;5129300;28;20384;-78
2022/03/22 01:29:52;;;;;;;33.55;18.25;;;0.10;61.40;;;;;;5113412;28;20012;-78
2022/03/22 01:32:18;;;;;;;33.75;19.23;;;0.20;61.20;;;;;;5128881;28;20434;-77
2022/03/22 01:34:43;;;;;;;40.58;19.33;;;0.20;61.70;;;;;;5129269;28;20051;-78
2022/03/22 01:37:10;;;;;;;38.80;18.60;;;0.20;61.00;;;;;;5129138;28;20019;-77
2022/03/22 01:39:36;;;;;;;44.95;20.70;;;0.30;60.80;;;;;;5113296;28;20024;-76
2022/03/22 01:42:03;;;;;;;42.13;19.95;;;0.30;60.80;;;;;;5094478;28;20035;-78
2022/03/22 01:44:29;;;;;;;38.90;20.23;;;0.30;60.50;;;;;;5113314;28;20019;-77
2022/03/22 01:47:01;;;;;;;37.50;19.45;;;0.30;60.70;;;;;;5113216;28;20020;-77
2022/03/22 01:49:27;;;;;;;40.03;20.83;;;0.40;60.70;;;;;;5095109;28;20389;-76
2022/03/22 01:51:55;;;;;;;36.00;17.80;;;0.40;60.40;;;;;;5128775;28;20015;-77
2022/03/22 01:54:20;;;;;;;36.20;20.98;;;0.50;60.20;;;;;;5111719;28;20020;-77
2022/03/22 01:56:46;;;;;;;39.38;19.70;;;0.50;60.00;;;;;;5094849;28;20085;-76
2022/03/22 01:59:12;;;;;;;41.75;19.38;;;0.50;60.10;;;;;;5113059;28;20065;-78
2022/03/22 02:07:06;;;;;;;40.08;20.08;;;0.50;60.10;;;;;;5113006;28;20084;-77
2022/03/22 02:09:33;;;;;;;40.78;20.75;;;0.50;59.90;;;;;;5113133;28;20024;-77
2022/03/22 02:11:59;;;;;;;39.65;20.83;;;0.50;60.10;;;;;;5096097;28;20023;-78
2022/03/22 02:14:25;;;;;;;47.05;21.20;;;0.50;59.90;;;;;;5098334;28;20021;-77
2022/03/22 02:16:51;;;;;;;42.08;20.88;;;0.40;59.70;;;;;;5115448;28;20020;-76
2022/03/22 02:19:17;;;;;;;38.15;21.85;;;0.40;59.50;;;;;;5116728;28;20485;-77
2022/03/22 02:21:43;;;;;;;38.22;22.15;;;0.40;59.20;;;;;;5116516;28;20052;-76
2022/03/22 02:24:09;;;;;;;36.28;21.08;;;0.30;58.90;;;;;;5097973;28;20019;-77
2022/03/22 02:26:36;;;;;;;42.10;21.02;;;0.30;58.80;;;;;;5132561;27;20066;-78
2022/03/22 02:29:03;;;;;;;41.15;21.30;;;0.30;58.70;;;;;;5116577;28;20024;-77
2022/03/22 02:31:30;;;;;;;40.13;22.27;;;0.30;58.60;;;;;;5115184;28;20024;-76
2022/03/22 02:33:57;;;;;;;44.40;22.73;;;0.30;59.00;;;;;;5116210;28;20039;-78
2022/03/22 02:36:23;;;;;;;41.22;22.65;;;0.30;59.40;;;;;;5098106;28;20031;-76
2022/03/22 02:38:49;;;;;;;44.00;23.63;;;0.30;59.30;;;;;;5097988;28;20016;-77
2022/03/22 02:41:20;;;;;;;44.40;23.45;;;0.20;59.50;;;;;;5116080;28;20056;-77
2022/03/22 02:43:48;;;;;;;38.60;22.33;;;0.10;60.00;;;;;;5116116;28;20385;-78
2022/03/22 02:46:14;;;;;;;41.78;20.95;;;0.10;60.20;;;;;;5116055;28;20085;-76
2022/03/22 02:48:40;;;;;;;46.42;23.20;;;0.10;60.40;;;;;;5114968;28;20030;-78
2022/03/22 02:51:06;;;;;;;47.60;22.55;;;0.10;60.30;;;;;;5097812;28;20033;-78
2022/03/22 02:53:32;;;;;;;37.28;21.20;;;0.10;60.30;;;;;;5115765;28;20023;-79
2022/03/22 02:55:58;;;;;;;37.42;20.50;;;0.00;60.30;;;;;;5115919;28;20499;-77
2022/03/22 02:58:23;;;;;;;41.80;20.67;;;0.00;59.90;;;;;;5097633;28;20039;-78
2022/03/22 03:00:49;;;;;;;43.47;23.30;;;0.00;59.60;;;;;;5131651;27;20061;-77
2022/03/22 03:03:14;;;;;;;42.83;22.15;;;0.10;59.30;;;;;;5115638;28;20027;-77
2022/03/22 03:05:40;;;;;;;41.15;21.00;;;0.10;59.10;;;;;;5115899;28;20540;-78
2022/03/22 03:08:06;;;;;;;43.28;21.42;;;0.00;59.80;;;;;;5115604;28;20374;-76
2022/03/22 03:10:32;;;;;;;39.22;20.85;;;0.10;59.20;;;;;;5131706;27;20016;-76
2022/03/22 03:13:03;;;;;;;50.38;23.98;;;0.00;59.20;;;;;;5114412;28;20027;-77
2022/03/22 03:15:30;;;;;;;41.55;21.35;;;0.10;59.40;;;;;;5114180;28;20051;-77
2022/03/22 03:17:56;;;;;;;40.90;20.83;;;0.00;59.60;;;;;;5097225;28;20015;-76
2022/03/22 03:20:22;;;;;;;39.60;20.98;;;0.10;59.60;;;;;;5097241;28;20020;-78
2022/03/22 03:22:48;;;;;;;39.45;20.63;;;0.10;59.50;;;;;;5096371;28;20378;-76
2022/03/22 03:25:13;;;;;;;48.28;24.23;;;0.10;59.20;;;;;;5114979;28;20051;-78
2022/03/22 03:27:39;;;;;;;40.13;20.83;;;0.10;59.20;;;;;;5115412;28;20020;-78
2022/03/22 03:30:06;;;;;;;41.78;21.98;;;0.10;59.30;;;;;;5115118;28;20027;-78
2022/03/22 03:32:32;;;;;;;46.50;21.55;;;0.10;59.40;;;;;;5115101;28;20032;-78
2022/03/22 03:34:58;;;;;;;45.70;23.23;;;0.10;59.80;;;;;;5115105;28;20032;-76
2022/03/22 03:37:24;;;;;;;40.95;22.92;;;0.10;59.70;;;;;;5115121;28;20031;-79
2022/03/22 03:39:53;;;;;;;34.10;21.05;;;0.10;59.30;;;;;;5115339;28;20094;-77
2022/03/22 03:42:18;;;;;;;46.60;24.02;;;0.10;59.60;;;;;;5096559;28;20035;-77
2022/03/22 03:47:28;;;;;;;44.97;22.60;;;0.10;59.60;;;;;;5115131;28;20082;-78
2022/03/22 03:50:01;;;;;;;44.88;24.10;;;0.10;59.60;;;;;;5114969;28;20019;-78
2022/03/22 03:52:30;;;;;;;42.28;23.10;;;0.20;59.50;;;;;;5096634;28;20080;-76
2022/03/22 03:54:56;;;;;;;39.40;22.08;;;0.20;59.60;;;;;;5114668;28;20024;-78
2022/03/22 03:57:23;;;;;;;45.95;23.75;;;0.20;59.30;;;;;;5114824;28;20027;-76
2022/03/22 03:59:50;;;;;;;53.20;23.65;;;0.20;59.20;;;;;;5114773;28;20023;-76
2022/03/22 04:02:19;;;;;;;48.53;24.25;;;0.20;59.50;;;;;;5114570;28;20401;-76
2022/03/22 04:04:51;;;;;;;46.60;24.65;;;0.30;59.50;;;;;;5114565;28;20020;-76
2022/03/22 04:07:18;;;;;;;42.40;23.70;;;0.30;59.70;;;;;;5130505;27;20016;-78
2022/03/22 04:09:44;;;;;;;47.33;24.83;;;0.30;59.40;;;;;;5096147;28;20016;-77
2022/03/22 04:12:10;;;;;;;43.78;24.73;;;0.20;59.60;;;;;;5114232;28;20023;-76
2022/03/22 04:14:36;;;;;;;38.97;23.63;;;0.20;59.80;;;;;;5096001;28;20016;-78
2022/03/22 04:17:02;;;;;;;45.75;24.52;;;0.20;59.90;;;;;;5130290;27;20031;-76
2022/03/22 04:19:28;;;;;;;46.72;23.98;;;0.20;60.80;;;;;;5114413;28;20034;-76
2022/03/22 04:21:54;;;;;;;53.92;27.20;;;0.10;59.80;;;;;;5114173;28;20036;-76
2022/03/22 04:24:20;;;;;;;48.47;23.75;;;0.10;60.00;;;;;;5113967;28;20106;-78
2022/03/22 04:26:46;;;;;;;42.08;23.08;;;0.10;59.90;;;;;;5114120;28;20012;-76
2022/03/22 04:34:45;;;;;;;39.30;21.13;;;0.10;59.90;;;;;;5113650;28;20405;-76
2022/03/22 04:37:14;;;;;;;40.30;22.38;;;0.10;59.90;;;;;;5114054;28;20055;-78
2022/03/22 04:39:41;;;;;;;41.70;20.83;;;0.10;60.20;;;;;;5114031;28;20043;-77
2022/03/22 04:42:07;;;;;;;39.05;21.77;;;0.00;60.30;;;;;;5095563;28;20404;-77
2022/03/22 04:44:34;;;;;;;41.92;22.23;;;0.00;60.20;;;;;;5114023;28;20016;-77
2022/03/22 04:46:59;;;;;;;42.05;22.20;;;0.00;60.20;;;;;;5113604;28;20058;-78
2022/03/22 04:49:26;;;;;;;41.70;20.98;;;0.10;60.50;;;;;;5129943;27;20016;-78
2022/03/22 04:57:23;;;;;;;38.80;21.40;;;0.10;60.30;;;;;;5114079;28;20500;-77
2022/03/22 04:59:48;;;;;;;42.50;22.13;;;0.10;59.90;;;;;;5113772;28;20069;-77
2022/03/22 05:02:15;;;;;;;41.45;20.30;;;0.10;59.90;;;;;;5095270;28;20439;-77
2022/03/22 05:04:41;;;;;;;41.47;21.50;;;0.10;59.90;;;;;;5095389;28;20526;-79
2022/03/22 05:07:07;;;;;;;36.83;20.23;;;0.20;59.90;;;;;;5094775;28;20024;-78
2022/03/22 05:09:32;;;;;;;37.17;20.52;;;0.20;59.60;;;;;;5113603;28;20085;-78
2022/03/22 05:12:00;;;;;;;37.45;21.55;;;0.20;59.50;;;;;;5095177;28;20031;-77
2022/03/22 05:14:26;;;;;;;37.30;20.42;;;0.30;60.10;;;;;;5095218;28;20045;-77
2022/03/22 05:16:52;;;;;;;41.63;20.52;;;0.30;59.20;;;;;;5094993;28;20024;-77
2022/03/22 05:19:18;;;;;;;40.40;20.65;;;0.40;59.10;;;;;;5095165;28;20019;-77
2022/03/22 05:21:45;;;;;;;39.70;20.27;;;0.40;59.40;;;;;;5113329;28;20040;-77
2022/03/22 05:24:11;;;;;;;39.28;19.33;;;0.50;59.50;;;;;;5113157;28;20111;-77
2022/03/22 05:26:37;;;;;;;51.33;21.80;;;0.60;59.10;;;;;;5094838;28;20028;-78
2022/03/22 05:29:04;;;;;;;38.75;20.13;;;0.70;58.90;;;;;;5113383;28;20043;-78
2022/03/22 05:31:34;;;;;;;37.30;18.63;;;0.80;58.80;;;;;;5095088;28;20369;-77
2022/03/22 05:34:00;;;;;;;39.72;21.35;;;1.00;58.10;;;;;;5094970;28;20054;-78
2022/03/22 05:36:26;;;;;;;34.78;19.40;;;1.20;57.90;;;;;;5113252;28;20023;-77
2022/03/22 05:38:53;;;;;;;36.72;19.60;;;1.30;57.50;;;;;;5095223;28;20035;-78
2022/03/22 05:41:19;;;;;;;35.33;19.17;;;1.60;56.90;;;;;;5113207;28;20075;-77
2022/03/22 05:43:44;;;;;;;37.20;21.23;;;1.70;56.50;;;;;;5095038;28;20016;-78
2022/03/22 05:46:10;;;;;;;42.90;23.70;;;1.90;56.10;;;;;;5113046;28;20022;-78
2022/03/22 05:48:39;;;;;;;72.60;23.83;;;2.10;56.10;;;;;;5099104;28;20110;-78
2022/03/22 05:51:05;;;;;;;45.40;22.55;;;2.20;56.50;;;;;;5098814;28;20540;-78
2022/03/22 05:53:31;;;;;;;43.05;22.73;;;2.40;55.60;;;;;;5098950;28;20111;-79
2022/03/22 05:55:57;;;;;;;38.63;23.02;;;2.50;55.70;;;;;;5098618;28;20020;-77
2022/03/22 05:58:23;;;;;;;43.15;22.73;;;2.60;55.60;;;;;;5117115;28;20089;-78
2022/03/22 06:00:48;;;;;;;39.80;19.88;;;2.80;55.50;;;;;;5116651;28;20024;-79
2022/03/22 06:03:15;;;;;;;36.08;20.92;;;3.10;54.70;;;;;;5132714;27;20106;-79
2022/03/22 06:05:42;;;;;;;38.17;19.45;;;3.30;53.90;;;;;;5116954;28;20028;-79
2022/03/22 06:08:08;;;;;;;30.88;18.48;;;3.50;53.00;;;;;;5094948;28;20012;-78
2022/03/22 06:10:34;;;;;;;37.72;21.42;;;3.70;52.30;;;;;;5116275;28;20072;-77
2022/03/22 06:13:00;;;;;;;39.53;21.42;;;4.00;52.00;;;;;;5097363;28;20382;-78
2022/03/22 06:15:28;;;;;;;37.55;21.40;;;4.20;51.80;;;;;;5116109;28;20023;-79
2022/03/22 06:18:03;;;;;;;38.17;21.55;;;4.40;51.70;;;;;;5096525;28;20384;-79
2022/03/22 06:20:36;;;;;;;35.45;19.52;;;4.50;51.20;;;;;;5116062;28;20028;-79
2022/03/22 06:23:04;;;;;;;32.65;18.70;;;4.70;50.60;;;;;;5114040;28;20035;-78
2022/03/22 06:25:30;;;;;;;35.60;20.25;;;4.90;50.10;;;;;;5098149;28;20023;-78
2022/03/22 06:27:57;;;;;;;36.60;20.45;;;5.00;49.30;;;;;;5114962;28;20028;-79
2022/03/22 06:30:23;;;;;;;32.00;18.58;;;5.20;48.70;;;;;;5097482;28;20019;-77
2022/03/22 06:33:01;;;;;;;32.72;19.88;;;5.30;49.10;;;;;;5111709;28;20048;-78
2022/03/22 06:35:31;;;;;;;33.80;20.10;;;5.50;48.40;;;;;;5077099;28;20017;-79
2022/03/22 06:37:59;;;;;;;32.88;19.38;;;5.70;48.70;;;;;;5072548;28;20063;-80
2022/03/22 06:40:29;;;;;;;36.85;21.08;;;5.80;47.70;;;;;;5092341;28;20028;-79
2022/03/22 06:42:56;;;;;;;31.92;18.52;;;6.00;47.10;;;;;;5094261;28;20123;-78
2022/03/22 06:45:21;;;;;;;31.27;17.77;;;6.10;47.10;;;;;;5093311;28;20062;-78
2022/03/22 06:47:48;;;;;;;35.40;18.50;;;6.30;46.60;;;;;;5077178;28;20040;-78
2022/03/22 06:50:16;;;;;;;31.45;18.05;;;6.40;46.10;;;;;;5076538;28;20016;-79
2022/03/22 06:52:42;;;;;;;37.92;19.20;;;6.50;45.40;;;;;;5076607;28;20034;-77
2022/03/22 06:55:08;;;;;;;32.92;18.30;;;6.70;45.30;;;;;;5076547;28;20024;-78
2022/03/22 06:57:35;;;;;;;33.83;19.13;;;6.80;44.80;;;;;;5092308;28;20020;-78
2022/03/22 07:00:04;;;;;;;32.67;18.27;;;7.00;44.70;;;;;;5077165;28;20076;-78
2022/03/22 07:02:30;;;;;;;27.38;18.10;;;7.10;44.20;;;;;;5077213;28;20035;-78
2022/03/22 07:04:56;;;;;;;31.60;18.73;;;7.20;44.10;;;;;;5095637;28;20020;-78
2022/03/22 07:07:22;;;;;;;32.88;18.63;;;7.40;43.90;;;;;;5095040;28;20461;-79
2022/03/22 07:09:48;;;;;;;34.05;18.60;;;7.60;44.70;;;;;;5095172;28;20107;-79
2022/03/22 07:12:14;;;;;;;29.90;17.90;;;7.70;43.90;;;;;;5077052;28;20545;-78
2022/03/22 07:14:43;;;;;;;31.95;18.23;;;7.90;43.50;;;;;;5093309;28;20082;-78
2022/03/22 07:17:10;;;;;;;28.17;17.83;;;8.00;43.10;;;;;;5092804;28;20035;-79
2022/03/22 07:19:37;;;;;;;30.58;18.90;;;8.20;42.60;;;;;;5093031;28;20019;-79
2022/03/22 07:22:03;;;;;;;33.97;18.27;;;8.30;42.40;;;;;;5092885;28;20031;-79
2022/03/22 07:24:29;;;;;;;27.02;18.00;;;8.40;41.80;;;;;;5092990;28;20020;-78
2022/03/22 07:26:55;;;;;;;34.35;18.40;;;8.50;41.60;;;;;;5092744;28;20144;-78
2022/03/22 07:29:21;;;;;;;29.67;18.75;;;8.60;41.50;;;;;;5075826;28;20020;-78
2022/03/22 07:31:46;;;;;;;31.00;18.60;;;8.60;41.30;;;;;;5094891;28;20054;-77
2022/03/22 07:34:17;;;;;;;33.15;18.50;;;8.70;41.20;;;;;;5087909;28;20401;-78
2022/03/22 07:36:46;;;;;;;32.60;18.45;;;8.80;41.10;;;;;;5093559;28;20020;-78
2022/03/22 07:39:13;;;;;;;26.63;16.63;;;8.90;41.30;;;;;;5093244;28;20020;-78
2022/03/22 07:41:43;;;;;;;34.35;17.73;;;9.10;41.30;;;;;;5093332;28;20501;-79
2022/03/22 07:44:12;;;;;;;32.53;18.20;;;9.10;41.20;;;;;;5094429;28;20020;-80
2022/03/22 07:46:47;;;;;;;34.63;18.83;;;9.30;41.00;;;;;;5114585;28;20024;-79
2022/03/22 07:54:43;;;;;;;26.00;16.95;;;9.50;40.80;;;;;;5115192;28;20027;-79
2022/03/22 07:57:08;;;;;;;30.30;18.73;;;9.60;40.40;;;;;;5114750;28;20393;-79
2022/03/22 07:59:35;;;;;;;35.00;19.95;;;9.70;40.20;;;;;;5096246;28;20018;-77
2022/03/22 08:02:00;;;;;;;29.55;17.48;;;9.70;40.20;;;;;;5114337;28;20039;-77
2022/03/22 08:04:26;;;;;;;29.17;16.65;;;9.80;39.80;;;;;;5114645;28;20506;-77
2022/03/22 08:06:52;;;;;;;30.58;17.92;;;9.90;39.80;;;;;;5113190;28;20012;-79
2022/03/22 08:09:18;;;;;;;25.42;15.65;;;10.00;39.60;;;;;;5113813;28;20031;-78
2022/03/22 08:11:43;;;;;;;26.98;17.30;;;10.20;39.50;;;;;;5114365;28;20059;-78
2022/03/22 08:14:09;;;;;;;28.52;17.38;;;10.20;39.30;;;;;;5114384;28;20427;-79
2022/03/22 08:16:37;;;;;;;30.20;16.85;;;10.30;39.20;;;;;;5125960;27;20046;-79
2022/03/22 08:19:07;;;;;;;27.55;16.20;;;10.30;39.00;;;;;;5095821;28;20026;-79
2022/03/22 08:21:36;;;;;;;28.55;17.40;;;10.40;39.00;;;;;;5114187;28;20035;-77
2022/03/22 08:24:02;;;;;;;25.02;15.18;;;10.40;38.80;;;;;;5095977;28;20011;-78
2022/03/22 08:26:31;;;;;;;24.63;15.77;;;10.40;38.70;;;;;;5114202;28;20473;-77
2022/03/22 08:28:57;;;;;;;31.45;17.20;;;10.40;38.90;;;;;;5095602;28;20194;-76
2022/03/22 08:31:22;;;;;;;27.30;15.82;;;10.50;39.10;;;;;;5095859;28;20590;-78
2022/03/22 08:33:48;;;;;;;24.73;14.98;;;10.50;39.20;;;;;;5092470;28;20528;-78
2022/03/22 08:36:14;;;;;;;23.92;15.85;;;10.50;39.30;;;;;;5075471;28;20393;-79
2022/03/22 08:38:39;;;;;;;22.83;15.63;;;10.70;39.30;;;;;;5093409;28;20076;-78
2022/03/22 08:41:05;;;;;;;26.50;14.90;;;10.70;39.10;;;;;;5093316;28;20042;-78
2022/03/22 08:43:32;;;;;;;24.40;14.05;;;10.80;39.10;;;;;;5075207;28;20012;-78
2022/03/22 08:45:58;;;;;;;26.77;14.57;;;10.80;38.90;;;;;;5093496;28;20062;-78
2022/03/22 08:48:24;;;;;;;25.05;15.73;;;11.00;38.90;;;;;;5110576;28;20051;-79
2022/03/22 08:50:50;;;;;;;25.25;15.07;;;11.20;38.90;;;;;;5113524;28;20015;-79
2022/03/22 08:53:18;;;;;;;24.88;15.95;;;11.30;38.60;;;;;;5113690;28;20054;-79
2022/03/22 08:55:45;;;;;;;26.20;15.23;;;11.30;38.40;;;;;;5095361;28;20072;-78
2022/03/22 08:58:11;;;;;;;22.75;12.93;;;11.40;38.30;;;;;;5094160;28;20550;-80
2022/03/22 09:00:37;;;;;;;25.20;15.10;;;11.40;38.10;;;;;;5112957;28;20036;-79
2022/03/22 09:03:04;;;;;;;20.23;13.95;;;11.50;38.40;;;;;;5126204;27;20049;-79
2022/03/22 09:08:14;;;;;;;24.38;13.85;;;11.80;38.00;;;;;;5113796;28;20088;-80
2022/03/22 09:10:40;;;;;;;24.35;15.50;;;11.70;37.80;;;;;;5129181;27;20412;-79
2022/03/22 09:13:07;;;;;;;22.45;14.40;;;11.70;37.90;;;;;;5113331;28;20028;-79
2022/03/22 09:15:36;;;;;;;25.23;15.50;;;11.80;37.90;;;;;;5113525;28;20054;-79
2022/03/22 09:18:02;;;;;;;25.60;13.70;;;11.90;38.00;;;;;;5113323;28;20110;-79
2022/03/22 09:20:32;;;;;;;24.70;13.95;;;12.00;38.00;;;;;;5112888;28;20035;-80
2022/03/22 09:22:59;;;;;;;20.48;13.77;;;12.10;37.80;;;;;;5112307;28;20073;-79
2022/03/22 09:25:25;;;;;;;24.92;14.02;;;12.20;37.80;;;;;;5113055;28;20034;-79
2022/03/22 09:27:50;;;;;;;23.60;14.65;;;12.30;37.70;;;;;;5094894;28;20024;-80
2022/03/22 09:30:17;;;;;;;22.20;13.32;;;12.30;37.40;;;;;;5112679;28;20469;-79
2022/03/22 09:32:43;;;;;;;21.75;13.52;;;12.30;37.50;;;;;;5094377;28;20032;-79
2022/03/22 09:35:10;;;;;;;20.90;14.35;;;12.40;37.50;;;;;;5113138;28;20031;-80
2022/03/22 09:37:43;;;;;;;21.17;13.88;;;12.40;37.40;;;;;;5094766;28;20507;-80
2022/03/22 09:40:10;;;;;;;;;;;12.50;37.40;;;;;;5095006;28;20086;-79
2022/03/22 09:42:38;;;;;;;24.48;14.30;;;12.60;37.40;;;;;;5113124;28;19980;-79
2022/03/22 09:45:08;;;;;;;25.45;15.05;;;12.60;37.20;;;;;;5126721;28;20065;-80
2022/03/22 09:47:36;;;;;;;20.75;13.82;;;12.60;36.90;;;;;;5093649;28;20026;-79
2022/03/22 09:50:03;;;;;;;24.08;15.20;;;12.50;37.00;;;;;;5093971;28;20024;-79
2022/03/22 09:52:29;;;;;;;21.27;14.25;;;12.50;37.30;;;;;;5094246;28;20028;-78
2022/03/22 09:54:55;;;;;;;27.92;14.27;;;12.70;37.20;;;;;;5111562;28;20020;-78
2022/03/22 09:57:20;;;;;;;24.55;12.93;;;12.60;36.90;;;;;;5111877;28;20067;-78
2022/03/22 09:59:46;;;;;;;25.55;14.68;;;12.60;36.70;;;;;;5112187;28;20016;-78
2022/03/22 10:02:11;;;;;;;25.75;14.82;;;12.70;36.50;;;;;;5094006;28;20417;-78
2022/03/22 10:04:42;;;;;;;19.63;13.20;;;12.70;36.50;;;;;;5125421;28;20178;-79
2022/03/22 10:07:17;;;;;;;22.92;13.73;;;12.80;36.90;;;;;;5111594;28;20030;-79
2022/03/22 10:09:51;;;;;;;20.67;13.80;;;12.80;36.60;;;;;;5112770;28;20373;-77
2022/03/22 10:12:26;;;;;;;18.52;12.43;;;12.80;36.30;;;;;;5112605;28;20024;-79
2022/03/22 10:14:52;;;;;;;22.92;14.07;;;12.90;36.40;;;;;;5094634;28;20115;-78
2022/03/22 10:17:18;;;;;;;21.08;13.23;;;12.90;36.20;;;;;;5112826;28;20493;-78
2022/03/22 10:19:46;;;;;;;22.63;13.90;;;13.00;37.00;;;;;;5112887;28;20027;-79
2022/03/22 10:22:12;;;;;;;21.92;13.50;;;13.10;36.40;;;;;;5094069;28;20032;-79
2022/03/22 10:24:41;;;;;;;20.75;14.32;;;13.20;36.10;;;;;;5111972;28;20384;-79
2022/03/22 10:27:23;;;;;;;23.63;14.15;;;13.20;35.70;;;;;;5112353;28;20385;-78
2022/03/22 10:29:50;;;;;;;27.38;13.90;;;13.30;35.80;;;;;;5090581;28;20077;-79
2022/03/22 10:32:16;;;;;;;24.55;15.00;;;13.30;35.60;;;;;;5096807;28;20035;-79
2022/03/22 10:34:42;;;;;;;23.02;14.23;;;13.40;36.10;;;;;;5116347;28;20060;-79
2022/03/22 10:37:09;;;;;;;57.05;17.17;;;13.60;36.20;;;;;;5132033;27;20058;-79
2022/03/22 10:39:40;;;;;;;24.60;15.02;;;13.60;35.20;;;;;;5097252;28;20032;-79
2022/03/22 10:42:08;;;;;;;22.63;14.65;;;13.60;35.20;;;;;;5096895;28;20062;-79
2022/03/22 10:44:36;;;;;;;25.65;14.63;;;13.60;35.30;;;;;;5097335;28;20454;-79
2022/03/22 10:47:02;;;;;;;22.83;13.95;;;13.60;34.50;;;;;;5097701;28;20088;-79
2022/03/22 10:49:29;;;;;;;24.02;15.65;;;13.70;34.60;;;;;;5094114;28;20032;-79
2022/03/22 10:51:56;;;;;;;21.58;15.07;;;13.70;35.00;;;;;;5094241;28;20039;-78
2022/03/22 10:54:22;;;;;;;24.90;14.90;;;13.70;35.20;;;;;;5097613;28;20024;-79
2022/03/22 10:56:51;;;;;;;21.45;13.60;;;13.70;34.50;;;;;;5097684;28;20023;-79
2022/03/22 10:59:19;;;;;;;22.13;14.68;;;13.80;34.00;;;;;;5097485;28;20024;-79
2022/03/22 11:01:46;;;;;;;24.58;15.82;;;13.90;34.60;;;;;;5097224;28;20127;-79
2022/03/22 11:04:16;;;;;;;26.10;15.55;;;13.90;34.50;;;;;;5115809;28;20048;-78
2022/03/22 11:06:43;;;;;;;21.65;14.43;;;14.10;35.10;;;;;;5107692;27;20015;-79
2022/03/22 11:09:09;;;;;;;20.70;14.50;;;14.20;34.90;;;;;;5117838;27;20503;-78
2022/03/22 11:11:36;;;;;;;21.80;13.55;;;14.20;34.20;;;;;;5124624;27;20024;-78
2022/03/22 11:14:02;;;;;;;24.70;15.88;;;14.20;34.00;;;;;;5097273;28;20030;-78
2022/03/22 11:16:31;;;;;;;22.23;14.63;;;14.20;34.10;;;;;;5115513;28;20375;-79
2022/03/22 11:18:59;;;;;;;24.23;14.27;;;14.30;34.00;;;;;;5097313;28;20020;-79
2022/03/22 11:21:26;;;;;;;25.75;15.77;;;14.40;34.20;;;;;;5096922;28;20046;-79
2022/03/22 11:24:07;;;;;;;24.02;16.35;;;14.40;34.20;;;;;;5115448;28;20488;-78
2022/03/22 11:26:42;;;;;;;29.30;16.15;;;14.30;33.80;;;;;;5097286;28;20020;-79
2022/03/22 11:29:13;;;;;;;20.67;14.13;;;14.40;34.00;;;;;;5114195;28;20564;-80
2022/03/22 11:31:41;;;;;;;23.88;14.50;;;14.40;33.30;;;;;;5114541;28;20500;-79
2022/03/22 11:34:09;;;;;;;23.20;15.27;;;14.40;33.00;;;;;;5095479;28;20078;-78
2022/03/22 11:36:45;;;;;;;26.48;14.85;;;14.50;33.60;;;;;;5115407;28;20028;-80
2022/03/22 11:39:17;;;;;;;23.85;14.98;;;14.40;33.50;;;;;;5095155;28;20023;-78
2022/03/22 11:44:39;;;;;;;25.50;14.38;;;14.50;33.60;;;;;;5114119;28;20030;-79
2022/03/22 11:47:07;;;;;;;34.90;16.73;;;14.50;33.70;;;;;;5096526;28;20063;-81
2022/03/22 11:49:51;;;;;;;27.27;15.38;;;14.60;33.70;;;;;;5096933;28;20028;-79
2022/03/22 11:52:19;;;;;;;24.98;14.57;;;14.60;33.60;;;;;;5096178;28;20026;-78
2022/03/22 11:55:18;;;;;;;26.98;15.18;;;14.60;33.60;;;;;;5113422;28;20015;-79
2022/03/22 11:57:58;;;;;;;20.58;13.32;;;14.70;33.90;;;;;;5114998;28;20020;-79
2022/03/22 12:00:56;;;;;;;18.05;12.93;;;14.70;33.30;;;;;;5096619;28;20168;-79
2022/03/22 12:03:28;;;;;;;20.25;13.35;;;14.80;33.60;;;;;;5114809;28;20408;-79
2022/03/22 12:05:54;;;;;;;23.90;13.53;;;14.80;33.50;;;;;;5096887;28;20077;-79
2022/03/22 12:08:20;;;;;;;24.73;15.25;;;14.90;33.70;;;;;;5114519;28;20024;-79
2022/03/22 12:10:48;;;;;;;22.35;13.98;;;14.90;33.20;;;;;;5096453;28;20427;-79
2022/03/22 12:13:14;;;;;;;22.27;13.93;;;15.00;32.80;;;;;;5114438;28;20065;-79
2022/03/22 12:15:40;;;;;;;28.23;13.25;;;15.10;32.90;;;;;;5130112;27;20043;-79
2022/03/22 12:18:08;;;;;;;18.27;11.93;;;15.20;33.20;;;;;;5096017;28;20062;-78
2022/03/22 12:20:33;;;;;;;22.42;14.00;;;15.20;32.60;;;;;;5114321;28;20023;-78
2022/03/22 12:22:59;;;;;;;20.38;13.65;;;15.30;32.80;;;;;;5114053;28;20031;-79
2022/03/22 12:25:31;;;;;;;20.75;14.18;;;15.30;32.70;;;;;;5123394;27;20469;-80
2022/03/22 12:28:09;;;;;;;16.60;10.80;;;15.40;32.80;;;;;;5096036;28;20086;-79
2022/03/22 12:30:43;;;;;;;15.18;10.63;;;15.40;32.20;;;;;;5095802;28;20485;-79
2022/03/22 12:33:14;;;;;;;16.02;9.60;;;15.50;32.00;;;;;;5095686;28;20056;-78
2022/03/22 12:35:44;;;;;;;24.95;12.32;;;15.50;31.70;;;;;;5114039;28;20023;-79
2022/03/22 12:38:10;;;;;;;19.45;11.68;;;15.60;31.50;;;;;;5113690;28;20027;-80
2022/03/22 12:40:37;;;;;;;21.85;13.35;;;15.60;32.00;;;;;;5087160;28;20381;-79
2022/03/22 12:43:06;;;;;;;19.92;12.43;;;15.70;32.30;;;;;;5094406;28;20031;-79
2022/03/22 12:45:32;;;;;;;20.70;12.23;;;15.80;32.40;;;;;;5093878;28;20035;-80
2022/03/22 12:47:58;;;;;;;18.70;11.88;;;15.70;32.10;;;;;;5112273;28;20034;-78
2022/03/22 12:50:25;;;;;;;18.73;11.18;;;15.70;32.10;;;;;;5109040;28;20035;-80
2022/03/22 12:52:51;;;;;;;15.40;10.25;;;15.80;32.10;;;;;;5094607;28;20016;-80
2022/03/22 12:55:18;;;;;;;18.48;11.15;;;15.80;31.60;;;;;;5092087;28;20118;-80
2022/03/22 12:57:48;;;;;;;16.40;11.60;;;15.90;31.20;;;;;;5093163;28;20080;-80
2022/03/22 13:00:28;;;;;;;18.33;12.65;;;15.90;32.30;;;;;;5093078;28;20039;-80
2022/03/22 13:02:55;;;;;;;21.95;12.80;;;15.90;31.50;;;;;;5094216;28;20069;-80
2022/03/22 13:05:29;;;;;;;19.05;12.02;;;15.90;31.70;;;;;;5093423;28;20043;-80